Terminal Aerodrome Forecast
Issued by NWS Tampa Bay Area, FL

Home | Current Version | Previous Version | Text Only | Print | Product List | Glossary On
Versions: 1 2 3 4 5 6 7 8 9 10 11 12 13 14 15 16 17 18 19 20 21 22 23 24 25 26
000
FTUS42 KTBW 192000 AAA
TAFTPA
TAF AMD
KTPA 192059Z 1921/2018 VRB04KT P6SM BKN250
     FM200100 VRB03KT P6SM FEW150 BKN250
      TEMPO 2009/2013 5SM BR
     FM201400 13004KT P6SM SCT150 BKN250=

USA.gov is the U.S. government's official web portal to all federal, state and local government web resources and services.